sensor_id;sensor_type;location;lat;lon;timestamp;pressure;altitude;pressure_sealevel;temperature;humidity
44441;BME280;30146;52.268;20.944;2022-11-20T00:00:50;100256.02;;;-3.30;59.68
44441;BME280;30146;52.268;20.944;2022-11-20T00:03:21;100256.29;;;-3.32;59.62
44441;BME280;30146;52.268;20.944;2022-11-20T00:05:53;100261.40;;;-3.33;59.61
44441;BME280;30146;52.268;20.944;2022-11-20T00:08:24;100259.70;;;-3.34;59.60
44441;BME280;30146;52.268;20.944;2022-11-20T00:10:55;100258.60;;;-3.36;59.66
44441;BME280;30146;52.268;20.944;2022-11-20T00:13:26;100257.82;;;-3.38;59.70
44441;BME280;30146;52.268;20.944;2022-11-20T00:16:00;100259.87;;;-3.41;59.74
44441;BME280;30146;52.268;20.944;2022-11-20T00:18:33;100259.70;;;-3.45;59.78
44441;BME280;30146;52.268;20.944;2022-11-20T00:21:06;100257.60;;;-3.47;59.79
44441;BME280;30146;52.268;20.944;2022-11-20T00:23:38;100255.83;;;-3.49;59.88
44441;BME280;30146;52.268;20.944;2022-11-20T00:26:11;100256.88;;;-3.52;60.02
44441;BME280;30146;52.268;20.944;2022-11-20T00:28:43;100252.98;;;-3.53;60.27
44441;BME280;30146;52.268;20.944;2022-11-20T00:31:16;100258.15;;;-3.53;60.17
44441;BME280;30146;52.268;20.944;2022-11-20T00:33:48;100257.25;;;-3.55;60.04
44441;BME280;30146;52.268;20.944;2022-11-20T00:36:21;100255.43;;;-3.54;60.34
44441;BME280;30146;52.268;20.944;2022-11-20T00:38:54;100249.57;;;-3.55;60.22
44441;BME280;30146;52.268;20.944;2022-11-20T00:41:27;100252.84;;;-3.53;60.40
44441;BME280;30146;52.268;20.944;2022-11-20T00:43:59;100252.15;;;-3.49;60.35
44441;BME280;30146;52.268;20.944;2022-11-20T00:46:30;100248.33;;;-3.45;60.55
44441;BME280;30146;52.268;20.944;2022-11-20T00:49:01;100247.91;;;-3.39;60.58
44441;BME280;30146;52.268;20.944;2022-11-20T00:51:32;100249.06;;;-3.36;60.77
44441;BME280;30146;52.268;20.944;2022-11-20T00:54:04;100244.92;;;-3.35;60.53
44441;BME280;30146;52.268;20.944;2022-11-20T00:56:35;100239.27;;;-3.35;60.77
44441;BME280;30146;52.268;20.944;2022-11-20T00:59:06;100234.48;;;-3.33;60.62
44441;BME280;30146;52.268;20.944;2022-11-20T01:01:37;100231.67;;;-3.33;60.62
44441;BME280;30146;52.268;20.944;2022-11-20T01:04:08;100234.27;;;-3.31;60.54
44441;BME280;30146;52.268;20.944;2022-11-20T01:06:40;100238.26;;;-3.27;60.49
44441;BME280;30146;52.268;20.944;2022-11-20T01:09:13;100231.46;;;-3.26;60.51
44441;BME280;30146;52.268;20.944;2022-11-20T01:11:45;100229.00;;;-3.25;60.50
44441;BME280;30146;52.268;20.944;2022-11-20T01:14:18;100226.40;;;-3.23;60.47
44441;BME280;30146;52.268;20.944;2022-11-20T01:16:51;100219.11;;;-3.21;60.47
44441;BME280;30146;52.268;20.944;2022-11-20T01:19:23;100218.16;;;-3.21;60.41
44441;BME280;30146;52.268;20.944;2022-11-20T01:21:55;100216.42;;;-3.18;60.56
44441;BME280;30146;52.268;20.944;2022-11-20T01:24:26;100210.45;;;-3.17;60.33
44441;BME280;30146;52.268;20.944;2022-11-20T01:26:57;100209.14;;;-3.17;60.59
44441;BME280;30146;52.268;20.944;2022-11-20T01:29:28;100207.53;;;-3.15;60.69
44441;BME280;30146;52.268;20.944;2022-11-20T01:31:59;100208.97;;;-3.13;60.70
44441;BME280;30146;52.268;20.944;2022-11-20T01:34:31;100208.46;;;-3.13;60.35
44441;BME280;30146;52.268;20.944;2022-11-20T01:37:02;100204.30;;;-3.13;60.25
44441;BME280;30146;52.268;20.944;2022-11-20T01:39:33;100199.70;;;-3.15;60.22
44441;BME280;30146;52.268;20.944;2022-11-20T01:42:04;100192.93;;;-3.16;60.24
44441;BME280;30146;52.268;20.944;2022-11-20T01:44:55;100196.72;;;-3.17;60.42
44441;BME280;30146;52.268;20.944;2022-11-20T01:47:34;100200.70;;;-3.18;60.42
44441;BME280;30146;52.268;20.944;2022-11-20T01:50:13;100207.61;;;-3.17;60.44
44441;BME280;30146;52.268;20.944;2022-11-20T01:52:48;100215.36;;;-3.16;60.31
44441;BME280;30146;52.268;20.944;2022-11-20T01:55:23;100215.57;;;-3.15;60.34
44441;BME280;30146;52.268;20.944;2022-11-20T01:57:56;100217.58;;;-3.11;60.69
44441;BME280;30146;52.268;20.944;2022-11-20T02:00:28;100217.46;;;-3.06;60.56
44441;BME280;30146;52.268;20.944;2022-11-20T02:03:01;100220.90;;;-3.04;60.44
44441;BME280;30146;52.268;20.944;2022-11-20T02:05:36;100222.84;;;-3.02;60.25
44441;BME280;30146;52.268;20.944;2022-11-20T02:08:09;100226.98;;;-3.02;60.31
44441;BME280;30146;52.268;20.944;2022-11-20T02:10:40;100223.73;;;-3.04;60.22
44441;BME280;30146;52.268;20.944;2022-11-20T02:13:11;100220.36;;;-3.08;60.05
44441;BME280;30146;52.268;20.944;2022-11-20T02:16:00;100217.31;;;-3.09;60.05
44441;BME280;30146;52.268;20.944;2022-11-20T02:18:32;100210.05;;;-3.11;60.33
44441;BME280;30146;52.268;20.944;2022-11-20T02:21:09;100206.64;;;-3.13;60.34
44441;BME280;30146;52.268;20.944;2022-11-20T02:23:57;100209.23;;;-3.15;60.13
44441;BME280;30146;52.268;20.944;2022-11-20T02:26:31;100211.47;;;-3.13;60.64
44441;BME280;30146;52.268;20.944;2022-11-20T02:29:03;100211.69;;;-3.12;60.47
44441;BME280;30146;52.268;20.944;2022-11-20T02:31:42;100208.56;;;-3.11;60.49
44441;BME280;30146;52.268;20.944;2022-11-20T02:34:14;100206.41;;;-3.10;60.46
44441;BME280;30146;52.268;20.944;2022-11-20T02:36:45;100206.15;;;-3.08;60.69
44441;BME280;30146;52.268;20.944;2022-11-20T02:39:17;100203.24;;;-3.10;60.63
44441;BME280;30146;52.268;20.944;2022-11-20T02:41:50;100196.99;;;-3.12;60.58
44441;BME280;30146;52.268;20.944;2022-11-20T02:44:22;100198.88;;;-3.14;60.62
44441;BME280;30146;52.268;20.944;2022-11-20T02:46:56;100196.08;;;-3.17;60.68
44441;BME280;30146;52.268;20.944;2022-11-20T02:49:27;100197.48;;;-3.20;60.83
44441;BME280;30146;52.268;20.944;2022-11-20T02:51:58;100195.59;;;-3.24;60.74
44441;BME280;30146;52.268;20.944;2022-11-20T02:54:29;100193.44;;;-3.28;60.85
44441;BME280;30146;52.268;20.944;2022-11-20T02:57:00;100191.37;;;-3.30;61.03
44441;BME280;30146;52.268;20.944;2022-11-20T02:59:31;100196.52;;;-3.30;61.15
44441;BME280;30146;52.268;20.944;2022-11-20T03:02:02;100198.30;;;-3.31;61.12
44441;BME280;30146;52.268;20.944;2022-11-20T03:04:34;100197.11;;;-3.32;61.30
44441;BME280;30146;52.268;20.944;2022-11-20T03:07:05;100194.87;;;-3.33;61.23
44441;BME280;30146;52.268;20.944;2022-11-20T03:09:38;100196.11;;;-3.36;61.32
44441;BME280;30146;52.268;20.944;2022-11-20T03:12:09;100193.80;;;-3.39;61.46
44441;BME280;30146;52.268;20.944;2022-11-20T03:14:40;100193.73;;;-3.44;61.38
44441;BME280;30146;52.268;20.944;2022-11-20T03:17:11;100185.42;;;-3.47;61.50
44441;BME280;30146;52.268;20.944;2022-11-20T03:19:42;100182.95;;;-3.50;61.52
44441;BME280;30146;52.268;20.944;2022-11-20T03:22:13;100181.88;;;-3.52;61.55
44441;BME280;30146;52.268;20.944;2022-11-20T03:24:45;100181.98;;;-3.53;61.93
44441;BME280;30146;52.268;20.944;2022-11-20T03:27:16;100181.61;;;-3.57;61.76
44441;BME280;30146;52.268;20.944;2022-11-20T03:29:47;100183.16;;;-3.60;61.76
44441;BME280;30146;52.268;20.944;2022-11-20T03:32:18;100183.61;;;-3.61;61.66
44441;BME280;30146;52.268;20.944;2022-11-20T03:34:49;100179.06;;;-3.62;61.98
44441;BME280;30146;52.268;20.944;2022-11-20T03:37:20;100183.09;;;-3.61;62.09
44441;BME280;30146;52.268;20.944;2022-11-20T03:39:51;100179.58;;;-3.62;62.09
44441;BME280;30146;52.268;20.944;2022-11-20T03:42:22;100183.04;;;-3.63;62.00
44441;BME280;30146;52.268;20.944;2022-11-20T03:45:11;100183.23;;;-3.62;62.11
44441;BME280;30146;52.268;20.944;2022-11-20T03:47:42;100183.36;;;-3.59;62.45
44441;BME280;30146;52.268;20.944;2022-11-20T03:50:14;100181.08;;;-3.58;62.41
44441;BME280;30146;52.268;20.944;2022-11-20T03:52:45;100179.48;;;-3.56;62.31
44441;BME280;30146;52.268;20.944;2022-11-20T03:55:16;100182.42;;;-3.54;62.48
44441;BME280;30146;52.268;20.944;2022-11-20T03:57:47;100182.30;;;-3.53;62.48
44441;BME280;30146;52.268;20.944;2022-11-20T04:00:19;100188.17;;;-3.53;62.42
44441;BME280;30146;52.268;20.944;2022-11-20T04:02:50;100187.06;;;-3.51;62.55
44441;BME280;30146;52.268;20.944;2022-11-20T04:05:21;100185.66;;;-3.49;62.61
44441;BME280;30146;52.268;20.944;2022-11-20T04:07:52;100183.73;;;-3.47;62.49
44441;BME280;30146;52.268;20.944;2022-11-20T04:10:24;100185.50;;;-3.49;62.70
44441;BME280;30146;52.268;20.944;2022-11-20T04:12:55;100183.30;;;-3.50;62.68
44441;BME280;30146;52.268;20.944;2022-11-20T04:15:26;100185.99;;;-3.49;62.43
44441;BME280;30146;52.268;20.944;2022-11-20T04:17:57;100183.14;;;-3.49;62.60
44441;BME280;30146;52.268;20.944;2022-11-20T04:20:28;100180.82;;;-3.49;62.86
44441;BME280;30146;52.268;20.944;2022-11-20T04:22:59;100181.59;;;-3.46;62.80
44441;BME280;30146;52.268;20.944;2022-11-20T04:25:31;100182.83;;;-3.45;63.05
44441;BME280;30146;52.268;20.944;2022-11-20T04:28:02;100179.86;;;-3.44;63.06
44441;BME280;30146;52.268;20.944;2022-11-20T04:30:33;100177.17;;;-3.44;62.89
44441;BME280;30146;52.268;20.944;2022-11-20T04:33:04;100175.59;;;-3.46;63.12
44441;BME280;30146;52.268;20.944;2022-11-20T04:35:36;100172.38;;;-3.47;63.04
44441;BME280;30146;52.268;20.944;2022-11-20T04:38:07;100176.84;;;-3.48;63.14
44441;BME280;30146;52.268;20.944;2022-11-20T04:40:39;100177.24;;;-3.50;63.09
44441;BME280;30146;52.268;20.944;2022-11-20T04:43:10;100177.23;;;-3.51;63.13
44441;BME280;30146;52.268;20.944;2022-11-20T04:45:41;100179.84;;;-3.52;62.99
44441;BME280;30146;52.268;20.944;2022-11-20T04:48:12;100178.05;;;-3.55;63.26
44441;BME280;30146;52.268;20.944;2022-11-20T04:50:43;100174.42;;;-3.57;63.20
44441;BME280;30146;52.268;20.944;2022-11-20T04:53:14;100174.05;;;-3.58;63.43
44441;BME280;30146;52.268;20.944;2022-11-20T04:55:46;100175.23;;;-3.58;63.23
44441;BME280;30146;52.268;20.944;2022-11-20T04:58:18;100177.63;;;-3.56;63.47
44441;BME280;30146;52.268;20.944;2022-11-20T05:00:49;100175.36;;;-3.55;63.44
44441;BME280;30146;52.268;20.944;2022-11-20T05:03:21;100170.40;;;-3.54;63.62
44441;BME280;30146;52.268;20.944;2022-11-20T05:05:52;100168.64;;;-3.52;63.72
44441;BME280;30146;52.268;20.944;2022-11-20T05:08:23;100169.86;;;-3.51;63.53
44441;BME280;30146;52.268;20.944;2022-11-20T05:10:58;100170.34;;;-3.52;63.51
44441;BME280;30146;52.268;20.944;2022-11-20T05:13:28;100167.41;;;-3.54;63.48
44441;BME280;30146;52.268;20.944;2022-11-20T05:16:04;100168.62;;;-3.56;63.32
44441;BME280;30146;52.268;20.944;2022-11-20T05:18:37;100172.01;;;-3.59;63.27
44441;BME280;30146;52.268;20.944;2022-11-20T05:21:10;100166.11;;;-3.64;63.29
44441;BME280;30146;52.268;20.944;2022-11-20T05:23:42;100164.59;;;-3.69;63.09
44441;BME280;30146;52.268;20.944;2022-11-20T05:26:16;100161.83;;;-3.74;63.15
44441;BME280;30146;52.268;20.944;2022-11-20T05:28:47;100158.77;;;-3.79;63.19
44441;BME280;30146;52.268;20.944;2022-11-20T05:31:20;100159.70;;;-3.84;63.20
44441;BME280;30146;52.268;20.944;2022-11-20T05:33:57;100156.91;;;-3.91;63.22
44441;BME280;30146;52.268;20.944;2022-11-20T05:36:29;100158.63;;;-3.96;63.23
44441;BME280;30146;52.268;20.944;2022-11-20T05:39:01;100157.79;;;-4.00;63.37
44441;BME280;30146;52.268;20.944;2022-11-20T05:41:34;100156.80;;;-4.04;63.49
44441;BME280;30146;52.268;20.944;2022-11-20T05:44:05;100155.23;;;-4.06;63.56
44441;BME280;30146;52.268;20.944;2022-11-20T05:46:36;100158.84;;;-4.07;63.66
44441;BME280;30146;52.268;20.944;2022-11-20T05:49:07;100156.02;;;-4.07;63.72
44441;BME280;30146;52.268;20.944;2022-11-20T05:51:38;100146.52;;;-4.06;63.78
44441;BME280;30146;52.268;20.944;2022-11-20T05:54:09;100147.11;;;-4.08;63.60
44441;BME280;30146;52.268;20.944;2022-11-20T05:56:40;100147.52;;;-4.10;63.60
44441;BME280;30146;52.268;20.944;2022-11-20T05:59:12;100147.48;;;-4.11;63.78
44441;BME280;30146;52.268;20.944;2022-11-20T06:01:43;100146.16;;;-4.14;63.64
44441;BME280;30146;52.268;20.944;2022-11-20T06:04:14;100142.67;;;-4.17;63.66
44441;BME280;30146;52.268;20.944;2022-11-20T06:06:45;100137.25;;;-4.19;63.78
44441;BME280;30146;52.268;20.944;2022-11-20T06:09:16;100135.98;;;-4.21;63.71
44441;BME280;30146;52.268;20.944;2022-11-20T06:11:48;100134.27;;;-4.22;64.02
44441;BME280;30146;52.268;20.944;2022-11-20T06:14:19;100130.11;;;-4.21;64.00
44441;BME280;30146;52.268;20.944;2022-11-20T06:16:50;100130.04;;;-4.23;64.04
44441;BME280;30146;52.268;20.944;2022-11-20T06:19:21;100127.41;;;-4.22;64.08
44441;BME280;30146;52.268;20.944;2022-11-20T06:21:52;100129.42;;;-4.22;64.23
44441;BME280;30146;52.268;20.944;2022-11-20T06:24:23;100129.67;;;-4.20;64.07
44441;BME280;30146;52.268;20.944;2022-11-20T06:26:55;100128.47;;;-4.21;64.09
44441;BME280;30146;52.268;20.944;2022-11-20T06:29:27;100127.20;;;-4.23;63.92
44441;BME280;30146;52.268;20.944;2022-11-20T06:32:02;100127.50;;;-4.24;64.01
44441;BME280;30146;52.268;20.944;2022-11-20T06:34:33;100130.48;;;-4.21;64.19
44441;BME280;30146;52.268;20.944;2022-11-20T06:37:05;100129.59;;;-4.18;64.22
44441;BME280;30146;52.268;20.944;2022-11-20T06:39:36;100134.79;;;-4.18;64.18
44441;BME280;30146;52.268;20.944;2022-11-20T06:42:07;100136.77;;;-4.15;64.30
44441;BME280;30146;52.268;20.944;2022-11-20T06:44:38;100130.77;;;-4.11;64.28
44441;BME280;30146;52.268;20.944;2022-11-20T06:47:09;100127.46;;;-4.06;64.33
44441;BME280;30146;52.268;20.944;2022-11-20T06:49:40;100125.30;;;-3.95;64.46
44441;BME280;30146;52.268;20.944;2022-11-20T06:52:11;100125.60;;;-3.54;65.14
44441;BME280;30146;52.268;20.944;2022-11-20T06:54:42;100126.23;;;-2.67;66.19
44441;BME280;30146;52.268;20.944;2022-11-20T06:57:14;100122.39;;;-1.79;66.46
44441;BME280;30146;52.268;20.944;2022-11-20T06:59:45;100124.17;;;-0.90;66.29
44441;BME280;30146;52.268;20.944;2022-11-20T07:02:16;100116.27;;;-0.10;65.41
44441;BME280;30146;52.268;20.944;2022-11-20T07:04:47;100107.12;;;0.65;64.75
44441;BME280;30146;52.268;20.944;2022-11-20T07:07:18;100105.89;;;1.43;64.39
44441;BME280;30146;52.268;20.944;2022-11-20T07:09:49;100105.30;;;2.16;63.58
44441;BME280;30146;52.268;20.944;2022-11-20T07:12:20;100109.89;;;2.87;62.69
44441;BME280;30146;52.268;20.944;2022-11-20T07:14:51;100102.60;;;3.46;61.81
44441;BME280;30146;52.268;20.944;2022-11-20T07:17:23;100097.36;;;4.06;61.11
44441;BME280;30146;52.268;20.944;2022-11-20T07:19:54;100090.14;;;4.68;60.28
44441;BME280;30146;52.268;20.944;2022-11-20T07:22:25;100088.61;;;5.23;59.08
44441;BME280;30146;52.268;20.944;2022-11-20T07:24:56;100089.48;;;5.75;58.46
44441;BME280;30146;52.268;20.944;2022-11-20T07:27:27;100092.04;;;6.40;58.39
44441;BME280;30146;52.268;20.944;2022-11-20T07:29:58;100092.52;;;7.02;57.33
44441;BME280;30146;52.268;20.944;2022-11-20T07:32:30;100090.30;;;7.45;55.84
44441;BME280;30146;52.268;20.944;2022-11-20T07:35:01;100086.29;;;8.03;55.83
44441;BME280;30146;52.268;20.944;2022-11-20T07:37:35;100086.59;;;8.56;54.76
44441;BME280;30146;52.268;20.944;2022-11-20T07:40:08;100085.84;;;8.97;53.34
44441;BME280;30146;52.268;20.944;2022-11-20T07:42:39;100085.96;;;9.26;52.34
44441;BME280;30146;52.268;20.944;2022-11-20T07:45:12;100080.17;;;9.63;51.80
44441;BME280;30146;52.268;20.944;2022-11-20T07:47:43;100070.97;;;9.79;49.97
44441;BME280;30146;52.268;20.944;2022-11-20T07:50:15;100073.45;;;9.86;49.15
44441;BME280;30146;52.268;20.944;2022-11-20T07:52:46;100073.91;;;9.92;49.16
44441;BME280;30146;52.268;20.944;2022-11-20T07:55:17;100074.77;;;10.20;48.65
44441;BME280;30146;52.268;20.944;2022-11-20T07:57:55;100071.02;;;10.48;48.39
44441;BME280;30146;52.268;20.944;2022-11-20T08:00:27;100069.51;;;10.83;48.20
44441;BME280;30146;52.268;20.944;2022-11-20T08:02:58;100066.13;;;11.34;48.41
44441;BME280;30146;52.268;20.944;2022-11-20T08:05:29;100066.04;;;11.78;47.53
44441;BME280;30146;52.268;20.944;2022-11-20T08:08:00;100068.59;;;12.07;46.48
44441;BME280;30146;52.268;20.944;2022-11-20T08:10:31;100069.20;;;12.35;46.33
44441;BME280;30146;52.268;20.944;2022-11-20T08:13:02;100068.39;;;12.79;46.31
44441;BME280;30146;52.268;20.944;2022-11-20T08:15:52;100060.63;;;13.25;45.58
44441;BME280;30146;52.268;20.944;2022-11-20T08:18:27;100060.64;;;13.59;44.97
44441;BME280;30146;52.268;20.944;2022-11-20T08:21:04;100060.63;;;13.92;44.11
44441;BME280;30146;52.268;20.944;2022-11-20T08:23:35;100065.00;;;14.14;43.43
44441;BME280;30146;52.268;20.944;2022-11-20T08:26:07;100062.80;;;14.36;42.86
44441;BME280;30146;52.268;20.944;2022-11-20T08:28:38;100058.48;;;14.66;42.51
44441;BME280;30146;52.268;20.944;2022-11-20T08:31:09;100055.26;;;14.59;41.48
44441;BME280;30146;52.268;20.944;2022-11-20T08:33:41;100056.48;;;13.86;40.37
44441;BME280;30146;52.268;20.944;2022-11-20T08:36:12;100060.16;;;13.01;39.73
44441;BME280;30146;52.268;20.944;2022-11-20T08:38:46;100060.12;;;12.00;39.35
44441;BME280;30146;52.268;20.944;2022-11-20T08:41:17;100063.79;;;11.10;39.73
44441;BME280;30146;52.268;20.944;2022-11-20T08:43:57;100065.25;;;10.44;40.51
44441;BME280;30146;52.268;20.944;2022-11-20T08:46:32;100062.48;;;10.20;40.99
44441;BME280;30146;52.268;20.944;2022-11-20T08:49:06;100059.84;;;10.25;41.54
44441;BME280;30146;52.268;20.944;2022-11-20T08:51:39;100056.70;;;10.46;42.05
44441;BME280;30146;52.268;20.944;2022-11-20T08:54:11;100044.80;;;10.65;41.97
44441;BME280;30146;52.268;20.944;2022-11-20T08:56:43;100032.59;;;11.14;42.90
44441;BME280;30146;52.268;20.944;2022-11-20T08:59:15;100025.55;;;11.82;42.77
44441;BME280;30146;52.268;20.944;2022-11-20T09:02:05;100021.34;;;12.45;42.09
44441;BME280;30146;52.268;20.944;2022-11-20T09:04:37;100024.64;;;12.95;41.37
44441;BME280;30146;52.268;20.944;2022-11-20T09:07:08;100023.58;;;13.38;40.85
44441;BME280;30146;52.268;20.944;2022-11-20T09:09:39;100020.66;;;13.89;40.84
44441;BME280;30146;52.268;20.944;2022-11-20T09:12:10;100014.98;;;14.48;40.53
44441;BME280;30146;52.268;20.944;2022-11-20T09:14:41;100006.43;;;15.01;40.57
44441;BME280;30146;52.268;20.944;2022-11-20T09:17:12;100008.08;;;15.30;40.21
44441;BME280;30146;52.268;20.944;2022-11-20T09:19:44;100008.62;;;15.18;39.25
44441;BME280;30146;52.268;20.944;2022-11-20T09:22:16;100007.23;;;14.82;38.96
44441;BME280;30146;52.268;20.944;2022-11-20T09:24:47;100012.66;;;14.40;38.54
44441;BME280;30146;52.268;20.944;2022-11-20T09:27:18;100009.90;;;14.17;38.48
44441;BME280;30146;52.268;20.944;2022-11-20T09:29:51;100010.79;;;14.27;38.15
44441;BME280;30146;52.268;20.944;2022-11-20T09:32:22;100007.22;;;14.55;38.16
44441;BME280;30146;52.268;20.944;2022-11-20T09:34:53;100001.98;;;14.90;37.85
44441;BME280;30146;52.268;20.944;2022-11-20T09:37:25;100000.09;;;15.26;37.75
44441;BME280;30146;52.268;20.944;2022-11-20T09:39:56;99993.36;;;15.56;37.31
44441;BME280;30146;52.268;20.944;2022-11-20T09:42:35;99992.22;;;15.74;37.07
44441;BME280;30146;52.268;20.944;2022-11-20T09:45:18;99990.95;;;15.95;36.79
44441;BME280;30146;52.268;20.944;2022-11-20T09:48:04;99994.61;;;16.03;35.99
44441;BME280;30146;52.268;20.944;2022-11-20T09:50:45;99993.40;;;16.04;35.51
44441;BME280;30146;52.268;20.944;2022-11-20T09:53:23;99996.50;;;16.12;35.27
44441;BME280;30146;52.268;20.944;2022-11-20T09:55:57;100001.27;;;16.09;34.76
44441;BME280;30146;52.268;20.944;2022-11-20T09:58:33;100004.69;;;16.01;34.30
44441;BME280;30146;52.268;20.944;2022-11-20T10:01:12;99996.08;;;15.82;34.02
44441;BME280;30146;52.268;20.944;2022-11-20T10:03:54;99988.17;;;15.27;33.73
44441;BME280;30146;52.268;20.944;2022-11-20T10:06:31;99993.00;;;14.69;34.01
44441;BME280;30146;52.268;20.944;2022-11-20T10:09:12;99996.52;;;13.86;35.03
44441;BME280;30146;52.268;20.944;2022-11-20T10:12:01;99995.67;;;12.80;35.61
44441;BME280;30146;52.268;20.944;2022-11-20T10:14:42;99995.69;;;11.67;35.87
44441;BME280;30146;52.268;20.944;2022-11-20T10:17:24;100002.34;;;10.70;36.42
44441;BME280;30146;52.268;20.944;2022-11-20T10:20:07;100000.79;;;9.79;37.21
44441;BME280;30146;52.268;20.944;2022-11-20T10:22:53;99999.85;;;9.05;37.98
44441;BME280;30146;52.268;20.944;2022-11-20T10:25:36;99993.67;;;8.39;38.97
44441;BME280;30146;52.268;20.944;2022-11-20T10:28:29;99988.66;;;7.84;39.48
44441;BME280;30146;52.268;20.944;2022-11-20T10:31:09;99984.40;;;7.26;40.15
44441;BME280;30146;52.268;20.944;2022-11-20T10:33:44;99983.25;;;6.77;40.64
44441;BME280;30146;52.268;20.944;2022-11-20T10:36:43;99988.98;;;6.37;41.49
44441;BME280;30146;52.268;20.944;2022-11-20T10:39:21;99985.80;;;5.99;41.59
44441;BME280;30146;52.268;20.944;2022-11-20T10:41:54;99981.92;;;5.66;42.23
44441;BME280;30146;52.268;20.944;2022-11-20T10:44:32;99978.77;;;5.46;42.79
44441;BME280;30146;52.268;20.944;2022-11-20T10:47:30;99980.04;;;5.31;43.27
44441;BME280;30146;52.268;20.944;2022-11-20T10:50:04;99980.45;;;5.17;43.66
44441;BME280;30146;52.268;20.944;2022-11-20T10:52:46;99983.77;;;5.04;43.81
44441;BME280;30146;52.268;20.944;2022-11-20T10:55:39;99987.20;;;4.89;44.20
44441;BME280;30146;52.268;20.944;2022-11-20T10:58:30;99987.63;;;4.79;44.85
44441;BME280;30146;52.268;20.944;2022-11-20T11:01:15;99985.89;;;4.73;44.67
44441;BME280;30146;52.268;20.944;2022-11-20T11:03:49;99991.77;;;4.68;45.01
44441;BME280;30146;52.268;20.944;2022-11-20T11:06:28;99985.95;;;4.62;45.29
44441;BME280;30146;52.268;20.944;2022-11-20T11:09:09;99979.20;;;4.63;45.83
44441;BME280;30146;52.268;20.944;2022-11-20T11:11:42;99977.51;;;4.63;46.42
44441;BME280;30146;52.268;20.944;2022-11-20T11:14:15;99974.32;;;4.67;46.29
44441;BME280;30146;52.268;20.944;2022-11-20T11:16:52;99972.89;;;4.59;45.91
44441;BME280;30146;52.268;20.944;2022-11-20T11:19:24;99972.14;;;4.51;46.08
44441;BME280;30146;52.268;20.944;2022-11-20T11:21:56;99970.02;;;4.39;46.00
44441;BME280;30146;52.268;20.944;2022-11-20T11:24:29;99973.27;;;4.30;46.14
44441;BME280;30146;52.268;20.944;2022-11-20T11:27:14;99971.49;;;4.18;46.31
44441;BME280;30146;52.268;20.944;2022-11-20T11:29:48;99973.23;;;4.07;46.42
44441;BME280;30146;52.268;20.944;2022-11-20T11:32:21;99971.02;;;3.92;46.59
44441;BME280;30146;52.268;20.944;2022-11-20T11:35:02;99967.83;;;3.78;46.69
44441;BME280;30146;52.268;20.944;2022-11-20T11:37:36;99968.71;;;3.68;47.04
44441;BME280;30146;52.268;20.944;2022-11-20T11:40:12;99964.48;;;3.54;47.04
44441;BME280;30146;52.268;20.944;2022-11-20T11:42:56;99961.87;;;3.36;47.11
44441;BME280;30146;52.268;20.944;2022-11-20T11:45:29;99958.37;;;3.14;47.45
44441;BME280;30146;52.268;20.944;2022-11-20T11:48:03;99955.41;;;2.97;47.53
44441;BME280;30146;52.268;20.944;2022-11-20T11:50:34;99956.56;;;2.84;47.86
44441;BME280;30146;52.268;20.944;2022-11-20T11:53:12;99955.99;;;2.70;47.78
44441;BME280;30146;52.268;20.944;2022-11-20T11:55:47;99954.27;;;2.57;48.34
44441;BME280;30146;52.268;20.944;2022-11-20T11:58:34;99954.01;;;2.52;48.68
44441;BME280;30146;52.268;20.944;2022-11-20T12:01:28;99955.52;;;2.40;48.76
44441;BME280;30146;52.268;20.944;2022-11-20T12:04:05;99954.98;;;2.30;48.84
44441;BME280;30146;52.268;20.944;2022-11-20T12:06:45;99956.04;;;2.22;49.26
44441;BME280;30146;52.268;20.944;2022-11-20T12:09:20;99939.59;;;2.18;49.53
44441;BME280;30146;52.268;20.944;2022-11-20T12:11:54;99937.35;;;2.16;49.71
44441;BME280;30146;52.268;20.944;2022-11-20T12:14:31;99938.84;;;2.13;49.93
44441;BME280;30146;52.268;20.944;2022-11-20T12:17:04;99936.41;;;2.09;50.00
44441;BME280;30146;52.268;20.944;2022-11-20T12:19:36;99935.13;;;2.03;49.91
44441;BME280;30146;52.268;20.944;2022-11-20T12:22:17;99934.45;;;1.95;49.95
44441;BME280;30146;52.268;20.944;2022-11-20T12:25:00;99927.55;;;1.86;50.09
44441;BME280;30146;52.268;20.944;2022-11-20T12:27:57;99929.72;;;1.85;50.40
44441;BME280;30146;52.268;20.944;2022-11-20T12:30:39;99927.64;;;1.82;50.62
44441;BME280;30146;52.268;20.944;2022-11-20T12:33:45;99926.09;;;1.81;50.74
44441;BME280;30146;52.268;20.944;2022-11-20T12:36:30;99919.83;;;1.79;50.84
44441;BME280;30146;52.268;20.944;2022-11-20T12:39:22;99918.74;;;1.75;51.16
44441;BME280;30146;52.268;20.944;2022-11-20T12:42:17;99910.36;;;1.68;50.87
44441;BME280;30146;52.268;20.944;2022-11-20T12:45:20;99908.20;;;1.61;51.03
44441;BME280;30146;52.268;20.944;2022-11-20T12:47:59;99905.89;;;1.56;51.00
44441;BME280;30146;52.268;20.944;2022-11-20T12:50:41;99903.75;;;1.50;51.15
44441;BME280;30146;52.268;20.944;2022-11-20T12:53:43;99901.15;;;1.46;51.41
44441;BME280;30146;52.268;20.944;2022-11-20T12:56:31;99903.49;;;1.45;51.52
44441;BME280;30146;52.268;20.944;2022-11-20T12:59:23;99902.19;;;1.39;51.50
44441;BME280;30146;52.268;20.944;2022-11-20T13:02:13;99896.22;;;1.36;51.77
44441;BME280;30146;52.268;20.944;2022-11-20T13:05:04;99889.60;;;1.33;51.58
44441;BME280;30146;52.268;20.944;2022-11-20T13:07:37;99885.21;;;1.32;51.85
44441;BME280;30146;52.268;20.944;2022-11-20T13:10:18;99883.39;;;1.34;52.12
44441;BME280;30146;52.268;20.944;2022-11-20T13:13:00;99876.86;;;1.36;52.23
44441;BME280;30146;52.268;20.944;2022-11-20T13:15:49;99875.50;;;1.35;52.14
44441;BME280;30146;52.268;20.944;2022-11-20T13:18:24;99879.67;;;1.33;52.22
44441;BME280;30146;52.268;20.944;2022-11-20T13:21:12;99877.92;;;1.30;52.15
44441;BME280;30146;52.268;20.944;2022-11-20T13:23:43;99866.80;;;1.30;52.25